sensor_id;sensor_type;location;lat;lon;timestamp;P1;durP1;ratioP1;P2;durP2;ratioP2
37309;SDS011;23195;47.744;7.358;2023-03-14T00:01:19;1.80;;;0.67;;
37309;SDS011;23195;47.744;7.358;2023-03-14T00:03:46;3.47;;;1.43;;
37309;SDS011;23195;47.744;7.358;2023-03-14T00:06:12;3.43;;;1.17;;
37309;SDS011;23195;47.744;7.358;2023-03-14T00:08:38;1.87;;;0.50;;
37309;SDS011;23195;47.744;7.358;2023-03-14T00:11:09;1.67;;;0.60;;
37309;SDS011;23195;47.744;7.358;2023-03-14T00:13:40;1.00;;;0.47;;
37309;SDS011;23195;47.744;7.358;2023-03-14T00:16:10;1.20;;;0.40;;
37309;SDS011;23195;47.744;7.358;2023-03-14T00:18:37;1.37;;;0.70;;
37309;SDS011;23195;47.744;7.358;2023-03-14T00:21:04;1.33;;;0.50;;
37309;SDS011;23195;47.744;7.358;2023-03-14T00:23:32;1.60;;;0.60;;
37309;SDS011;23195;47.744;7.358;2023-03-14T00:26:00;0.90;;;0.50;;
37309;SDS011;23195;47.744;7.358;2023-03-14T00:28:26;0.60;;;0.30;;
37309;SDS011;23195;47.744;7.358;2023-03-14T00:30:53;4.93;;;0.50;;
37309;SDS011;23195;47.744;7.358;2023-03-14T00:33:22;1.27;;;0.60;;
37309;SDS011;23195;47.744;7.358;2023-03-14T00:35:52;4.47;;;0.90;;
37309;SDS011;23195;47.744;7.358;2023-03-14T00:38:24;1.33;;;0.47;;
37309;SDS011;23195;47.744;7.358;2023-03-14T00:40:51;0.87;;;0.47;;
37309;SDS011;23195;47.744;7.358;2023-03-14T00:43:18;1.13;;;0.67;;
37309;SDS011;23195;47.744;7.358;2023-03-14T00:45:46;1.60;;;0.50;;
37309;SDS011;23195;47.744;7.358;2023-03-14T00:48:18;1.33;;;0.67;;
37309;SDS011;23195;47.744;7.358;2023-03-14T00:50:45;1.73;;;0.47;;
37309;SDS011;23195;47.744;7.358;2023-03-14T00:53:11;1.87;;;0.53;;
37309;SDS011;23195;47.744;7.358;2023-03-14T00:55:38;0.87;;;0.60;;
37309;SDS011;23195;47.744;7.358;2023-03-14T00:58:05;3.83;;;0.63;;
37309;SDS011;23195;47.744;7.358;2023-03-14T01:00:31;1.70;;;0.70;;
37309;SDS011;23195;47.744;7.358;2023-03-14T01:02:58;2.57;;;0.70;;
37309;SDS011;23195;47.744;7.358;2023-03-14T01:05:23;5.20;;;0.73;;
37309;SDS011;23195;47.744;7.358;2023-03-14T01:07:50;1.63;;;0.50;;
37309;SDS011;23195;47.744;7.358;2023-03-14T01:10:16;1.73;;;0.50;;
37309;SDS011;23195;47.744;7.358;2023-03-14T01:12:42;3.13;;;0.57;;
37309;SDS011;23195;47.744;7.358;2023-03-14T01:15:08;1.27;;;0.60;;
37309;SDS011;23195;47.744;7.358;2023-03-14T01:17:34;2.03;;;0.50;;
37309;SDS011;23195;47.744;7.358;2023-03-14T01:20:00;2.37;;;0.60;;
37309;SDS011;23195;47.744;7.358;2023-03-14T01:22:26;3.27;;;0.57;;
37309;SDS011;23195;47.744;7.358;2023-03-14T01:24:52;1.83;;;0.70;;
37309;SDS011;23195;47.744;7.358;2023-03-14T01:27:18;1.00;;;0.50;;
37309;SDS011;23195;47.744;7.358;2023-03-14T01:29:43;1.80;;;0.70;;
37309;SDS011;23195;47.744;7.358;2023-03-14T01:32:09;2.37;;;1.00;;
37309;SDS011;23195;47.744;7.358;2023-03-14T01:34:35;2.30;;;0.90;;
37309;SDS011;23195;47.744;7.358;2023-03-14T01:37:01;2.13;;;0.70;;
37309;SDS011;23195;47.744;7.358;2023-03-14T01:39:26;2.43;;;0.60;;
37309;SDS011;23195;47.744;7.358;2023-03-14T01:41:53;1.33;;;0.57;;
37309;SDS011;23195;47.744;7.358;2023-03-14T01:44:19;3.97;;;1.00;;
37309;SDS011;23195;47.744;7.358;2023-03-14T01:46:45;2.47;;;0.60;;
37309;SDS011;23195;47.744;7.358;2023-03-14T01:51:47;2.73;;;0.60;;
37309;SDS011;23195;47.744;7.358;2023-03-14T01:57:11;5.80;;;0.90;;
37309;SDS011;23195;47.744;7.358;2023-03-14T01:59:43;2.43;;;0.63;;
37309;SDS011;23195;47.744;7.358;2023-03-14T02:02:17;2.80;;;0.90;;
37309;SDS011;23195;47.744;7.358;2023-03-14T02:04:47;2.27;;;0.70;;
37309;SDS011;23195;47.744;7.358;2023-03-14T02:09:51;3.97;;;0.67;;
37309;SDS011;23195;47.744;7.358;2023-03-14T02:12:19;5.87;;;0.70;;
37309;SDS011;23195;47.744;7.358;2023-03-14T02:14:46;4.00;;;0.80;;
37309;SDS011;23195;47.744;7.358;2023-03-14T02:17:13;1.40;;;0.50;;
37309;SDS011;23195;47.744;7.358;2023-03-14T02:22:10;1.13;;;0.43;;
37309;SDS011;23195;47.744;7.358;2023-03-14T02:27:08;2.93;;;0.70;;
37309;SDS011;23195;47.744;7.358;2023-03-14T02:29:46;3.50;;;0.87;;
37309;SDS011;23195;47.744;7.358;2023-03-14T02:32:22;4.70;;;0.70;;
37309;SDS011;23195;47.744;7.358;2023-03-14T02:34:51;3.23;;;0.60;;
37309;SDS011;23195;47.744;7.358;2023-03-14T02:37:20;0.97;;;0.40;;
37309;SDS011;23195;47.744;7.358;2023-03-14T02:39:51;2.73;;;0.60;;
37309;SDS011;23195;47.744;7.358;2023-03-14T02:42:17;4.10;;;0.60;;
37309;SDS011;23195;47.744;7.358;2023-03-14T02:47:25;3.13;;;0.77;;
37309;SDS011;23195;47.744;7.358;2023-03-14T02:49:56;4.97;;;0.90;;
37309;SDS011;23195;47.744;7.358;2023-03-14T02:52:39;4.97;;;0.80;;
37309;SDS011;23195;47.744;7.358;2023-03-14T02:55:05;3.80;;;0.90;;
37309;SDS011;23195;47.744;7.358;2023-03-14T02:57:32;5.37;;;1.13;;
37309;SDS011;23195;47.744;7.358;2023-03-14T03:00:01;1.67;;;0.60;;
37309;SDS011;23195;47.744;7.358;2023-03-14T03:02:32;5.43;;;0.87;;
37309;SDS011;23195;47.744;7.358;2023-03-14T03:04:57;4.90;;;0.57;;
37309;SDS011;23195;47.744;7.358;2023-03-14T03:07:23;3.60;;;0.83;;
37309;SDS011;23195;47.744;7.358;2023-03-14T03:09:49;8.60;;;0.70;;
37309;SDS011;23195;47.744;7.358;2023-03-14T03:12:15;2.37;;;0.83;;
37309;SDS011;23195;47.744;7.358;2023-03-14T03:14:41;2.47;;;0.50;;
37309;SDS011;23195;47.744;7.358;2023-03-14T03:17:07;6.57;;;0.60;;
37309;SDS011;23195;47.744;7.358;2023-03-14T03:19:33;1.60;;;0.77;;
37309;SDS011;23195;47.744;7.358;2023-03-14T03:21:59;2.87;;;0.70;;
37309;SDS011;23195;47.744;7.358;2023-03-14T03:24:28;3.23;;;0.60;;
37309;SDS011;23195;47.744;7.358;2023-03-14T03:26:54;3.93;;;0.63;;
37309;SDS011;23195;47.744;7.358;2023-03-14T03:29:23;1.90;;;0.50;;
37309;SDS011;23195;47.744;7.358;2023-03-14T03:31:49;1.87;;;0.43;;
37309;SDS011;23195;47.744;7.358;2023-03-14T03:34:15;3.27;;;0.80;;
37309;SDS011;23195;47.744;7.358;2023-03-14T03:36:41;3.67;;;0.70;;
37309;SDS011;23195;47.744;7.358;2023-03-14T03:39:07;4.53;;;0.63;;
37309;SDS011;23195;47.744;7.358;2023-03-14T03:41:33;3.53;;;0.60;;
37309;SDS011;23195;47.744;7.358;2023-03-14T03:43:59;3.80;;;0.63;;
37309;SDS011;23195;47.744;7.358;2023-03-14T03:46:24;2.60;;;0.50;;
37309;SDS011;23195;47.744;7.358;2023-03-14T03:48:59;1.87;;;0.40;;
37309;SDS011;23195;47.744;7.358;2023-03-14T03:51:27;3.57;;;0.50;;
37309;SDS011;23195;47.744;7.358;2023-03-14T03:53:53;1.53;;;0.30;;
37309;SDS011;23195;47.744;7.358;2023-03-14T03:56:22;2.40;;;0.30;;
37309;SDS011;23195;47.744;7.358;2023-03-14T03:58:48;1.90;;;0.60;;
37309;SDS011;23195;47.744;7.358;2023-03-14T04:01:13;4.97;;;0.50;;
37309;SDS011;23195;47.744;7.358;2023-03-14T04:03:39;1.03;;;0.33;;
37309;SDS011;23195;47.744;7.358;2023-03-14T04:06:06;2.83;;;0.63;;
37309;SDS011;23195;47.744;7.358;2023-03-14T04:08:34;1.73;;;0.30;;
37309;SDS011;23195;47.744;7.358;2023-03-14T04:11:00;1.30;;;0.47;;
37309;SDS011;23195;47.744;7.358;2023-03-14T04:13:27;2.47;;;0.40;;
37309;SDS011;23195;47.744;7.358;2023-03-14T04:15:53;3.13;;;0.30;;
37309;SDS011;23195;47.744;7.358;2023-03-14T04:18:20;1.37;;;0.23;;
37309;SDS011;23195;47.744;7.358;2023-03-14T04:20:54;1.60;;;0.30;;
37309;SDS011;23195;47.744;7.358;2023-03-14T04:23:21;2.80;;;0.30;;
37309;SDS011;23195;47.744;7.358;2023-03-14T04:25:49;2.03;;;0.40;;
37309;SDS011;23195;47.744;7.358;2023-03-14T04:28:15;0.90;;;0.30;;
37309;SDS011;23195;47.744;7.358;2023-03-14T04:30:41;1.67;;;0.33;;
37309;SDS011;23195;47.744;7.358;2023-03-14T04:33:07;2.70;;;0.30;;
37309;SDS011;23195;47.744;7.358;2023-03-14T04:35:33;1.47;;;0.30;;
37309;SDS011;23195;47.744;7.358;2023-03-14T04:37:59;3.70;;;0.40;;
37309;SDS011;23195;47.744;7.358;2023-03-14T04:40:25;2.00;;;0.53;;
37309;SDS011;23195;47.744;7.358;2023-03-14T04:42:51;3.93;;;0.40;;
37309;SDS011;23195;47.744;7.358;2023-03-14T04:45:17;0.80;;;0.37;;
37309;SDS011;23195;47.744;7.358;2023-03-14T04:47:45;0.60;;;0.10;;
37309;SDS011;23195;47.744;7.358;2023-03-14T04:50:11;0.80;;;0.30;;
37309;SDS011;23195;47.744;7.358;2023-03-14T04:52:37;1.80;;;0.30;;
37309;SDS011;23195;47.744;7.358;2023-03-14T04:55:03;1.17;;;0.30;;
37309;SDS011;23195;47.744;7.358;2023-03-14T04:57:29;0.80;;;0.30;;
37309;SDS011;23195;47.744;7.358;2023-03-14T04:59:55;4.23;;;0.50;;
37309;SDS011;23195;47.744;7.358;2023-03-14T05:02:23;0.87;;;0.30;;
37309;SDS011;23195;47.744;7.358;2023-03-14T05:04:49;1.50;;;0.30;;
37309;SDS011;23195;47.744;7.358;2023-03-14T05:07:15;3.43;;;0.87;;
37309;SDS011;23195;47.744;7.358;2023-03-14T05:09:41;0.60;;;0.20;;
37309;SDS011;23195;47.744;7.358;2023-03-14T05:12:09;2.17;;;0.40;;
37309;SDS011;23195;47.744;7.358;2023-03-14T05:14:35;0.57;;;0.37;;
37309;SDS011;23195;47.744;7.358;2023-03-14T05:17:01;2.67;;;0.50;;
37309;SDS011;23195;47.744;7.358;2023-03-14T05:19:30;4.30;;;0.30;;
37309;SDS011;23195;47.744;7.358;2023-03-14T05:21:56;1.90;;;0.30;;
37309;SDS011;23195;47.744;7.358;2023-03-14T05:24:22;2.00;;;0.30;;
37309;SDS011;23195;47.744;7.358;2023-03-14T05:26:48;1.13;;;0.40;;
37309;SDS011;23195;47.744;7.358;2023-03-14T05:29:13;0.83;;;0.30;;
37309;SDS011;23195;47.744;7.358;2023-03-14T05:31:39;0.70;;;0.30;;
37309;SDS011;23195;47.744;7.358;2023-03-14T05:34:05;2.23;;;0.40;;
37309;SDS011;23195;47.744;7.358;2023-03-14T05:36:31;1.50;;;0.30;;
37309;SDS011;23195;47.744;7.358;2023-03-14T05:38:57;2.37;;;0.30;;
37309;SDS011;23195;47.744;7.358;2023-03-14T05:41:22;2.13;;;0.30;;
37309;SDS011;23195;47.744;7.358;2023-03-14T05:43:48;0.60;;;0.30;;
37309;SDS011;23195;47.744;7.358;2023-03-14T05:46:14;1.87;;;0.40;;
37309;SDS011;23195;47.744;7.358;2023-03-14T05:48:40;1.20;;;0.40;;
37309;SDS011;23195;47.744;7.358;2023-03-14T05:51:08;0.70;;;0.50;;
37309;SDS011;23195;47.744;7.358;2023-03-14T05:53:34;0.90;;;0.50;;
37309;SDS011;23195;47.744;7.358;2023-03-14T05:56:03;1.20;;;0.50;;
37309;SDS011;23195;47.744;7.358;2023-03-14T05:58:29;1.93;;;0.40;;
37309;SDS011;23195;47.744;7.358;2023-03-14T06:00:57;0.43;;;0.30;;
37309;SDS011;23195;47.744;7.358;2023-03-14T06:03:31;0.80;;;0.30;;
37309;SDS011;23195;47.744;7.358;2023-03-14T06:05:59;1.27;;;0.30;;
37309;SDS011;23195;47.744;7.358;2023-03-14T06:08:25;1.77;;;0.70;;
37309;SDS011;23195;47.744;7.358;2023-03-14T06:10:53;1.63;;;0.37;;
37309;SDS011;23195;47.744;7.358;2023-03-14T06:13:22;1.20;;;0.40;;
37309;SDS011;23195;47.744;7.358;2023-03-14T06:15:48;0.70;;;0.40;;
37309;SDS011;23195;47.744;7.358;2023-03-14T06:18:14;1.33;;;0.30;;
37309;SDS011;23195;47.744;7.358;2023-03-14T06:20:40;3.50;;;0.40;;
37309;SDS011;23195;47.744;7.358;2023-03-14T06:23:06;1.40;;;0.50;;
37309;SDS011;23195;47.744;7.358;2023-03-14T06:25:38;2.00;;;0.37;;
37309;SDS011;23195;47.744;7.358;2023-03-14T06:28:04;2.00;;;0.40;;
37309;SDS011;23195;47.744;7.358;2023-03-14T06:30:30;2.17;;;0.40;;
37309;SDS011;23195;47.744;7.358;2023-03-14T06:32:56;2.20;;;0.30;;
37309;SDS011;23195;47.744;7.358;2023-03-14T06:35:24;0.30;;;0.23;;
37309;SDS011;23195;47.744;7.358;2023-03-14T06:37:53;2.20;;;0.40;;
37309;SDS011;23195;47.744;7.358;2023-03-14T06:40:18;1.93;;;0.47;;
37309;SDS011;23195;47.744;7.358;2023-03-14T06:42:44;1.30;;;0.60;;
37309;SDS011;23195;47.744;7.358;2023-03-14T06:45:10;1.10;;;0.70;;
37309;SDS011;23195;47.744;7.358;2023-03-14T06:47:36;0.63;;;0.43;;
37309;SDS011;23195;47.744;7.358;2023-03-14T06:50:04;0.90;;;0.30;;
37309;SDS011;23195;47.744;7.358;2023-03-14T06:52:31;0.53;;;0.30;;
37309;SDS011;23195;47.744;7.358;2023-03-14T06:54:57;0.90;;;0.40;;
37309;SDS011;23195;47.744;7.358;2023-03-14T06:57:23;3.20;;;0.40;;
37309;SDS011;23195;47.744;7.358;2023-03-14T06:59:51;4.23;;;0.40;;
37309;SDS011;23195;47.744;7.358;2023-03-14T07:02:17;3.07;;;0.60;;
37309;SDS011;23195;47.744;7.358;2023-03-14T07:04:43;0.90;;;0.47;;
37309;SDS011;23195;47.744;7.358;2023-03-14T07:07:09;1.73;;;0.33;;
37309;SDS011;23195;47.744;7.358;2023-03-14T07:09:38;1.27;;;0.40;;
37309;SDS011;23195;47.744;7.358;2023-03-14T07:12:03;1.70;;;0.43;;
37309;SDS011;23195;47.744;7.358;2023-03-14T07:14:30;0.80;;;0.47;;
37309;SDS011;23195;47.744;7.358;2023-03-14T07:16:56;0.90;;;0.60;;
37309;SDS011;23195;47.744;7.358;2023-03-14T07:19:24;1.63;;;0.70;;
37309;SDS011;23195;47.744;7.358;2023-03-14T07:21:53;3.07;;;0.70;;
37309;SDS011;23195;47.744;7.358;2023-03-14T07:24:19;1.73;;;0.70;;
37309;SDS011;23195;47.744;7.358;2023-03-14T07:26:45;1.83;;;0.60;;
37309;SDS011;23195;47.744;7.358;2023-03-14T07:29:11;0.97;;;0.50;;
37309;SDS011;23195;47.744;7.358;2023-03-14T07:31:37;2.80;;;0.70;;
37309;SDS011;23195;47.744;7.358;2023-03-14T07:34:02;0.57;;;0.43;;
37309;SDS011;23195;47.744;7.358;2023-03-14T07:36:28;1.57;;;0.83;;
37309;SDS011;23195;47.744;7.358;2023-03-14T07:38:54;2.90;;;0.60;;
37309;SDS011;23195;47.744;7.358;2023-03-14T07:41:20;1.93;;;0.60;;
37309;SDS011;23195;47.744;7.358;2023-03-14T07:43:46;2.50;;;0.60;;
37309;SDS011;23195;47.744;7.358;2023-03-14T07:46:12;1.57;;;0.60;;
37309;SDS011;23195;47.744;7.358;2023-03-14T07:48:37;1.20;;;0.60;;
37309;SDS011;23195;47.744;7.358;2023-03-14T07:51:03;1.67;;;0.40;;
37309;SDS011;23195;47.744;7.358;2023-03-14T07:53:32;2.17;;;0.60;;
37309;SDS011;23195;47.744;7.358;2023-03-14T07:56:04;0.50;;;0.50;;
37309;SDS011;23195;47.744;7.358;2023-03-14T07:58:30;1.80;;;0.50;;
37309;SDS011;23195;47.744;7.358;2023-03-14T08:00:58;1.63;;;0.57;;
37309;SDS011;23195;47.744;7.358;2023-03-14T08:03:27;0.60;;;0.50;;
37309;SDS011;23195;47.744;7.358;2023-03-14T08:05:54;1.43;;;0.40;;
37309;SDS011;23195;47.744;7.358;2023-03-14T08:08:22;1.47;;;0.33;;
37309;SDS011;23195;47.744;7.358;2023-03-14T08:10:48;2.03;;;0.40;;
37309;SDS011;23195;47.744;7.358;2023-03-14T08:13:14;2.10;;;0.50;;
37309;SDS011;23195;47.744;7.358;2023-03-14T08:15:40;3.97;;;0.40;;
37309;SDS011;23195;47.744;7.358;2023-03-14T08:18:06;1.47;;;0.30;;
37309;SDS011;23195;47.744;7.358;2023-03-14T08:20:44;0.50;;;0.23;;
37309;SDS011;23195;47.744;7.358;2023-03-14T08:23:09;0.93;;;0.20;;
37309;SDS011;23195;47.744;7.358;2023-03-14T08:25:35;0.30;;;0.30;;
37309;SDS011;23195;47.744;7.358;2023-03-14T08:28:06;0.60;;;0.30;;
37309;SDS011;23195;47.744;7.358;2023-03-14T08:30:34;2.13;;;0.50;;
37309;SDS011;23195;47.744;7.358;2023-03-14T08:33:03;0.87;;;0.57;;
37309;SDS011;23195;47.744;7.358;2023-03-14T08:35:32;1.33;;;0.70;;
37309;SDS011;23195;47.744;7.358;2023-03-14T08:38:02;1.13;;;0.70;;
37309;SDS011;23195;47.744;7.358;2023-03-14T08:40:28;2.97;;;1.20;;
37309;SDS011;23195;47.744;7.358;2023-03-14T08:42:54;2.53;;;0.40;;
37309;SDS011;23195;47.744;7.358;2023-03-14T08:45:20;2.57;;;0.40;;
37309;SDS011;23195;47.744;7.358;2023-03-14T08:47:46;1.50;;;0.50;;
37309;SDS011;23195;47.744;7.358;2023-03-14T08:50:12;3.37;;;0.47;;
37309;SDS011;23195;47.744;7.358;2023-03-14T08:52:38;0.47;;;0.30;;
37309;SDS011;23195;47.744;7.358;2023-03-14T08:55:06;0.83;;;0.40;;
37309;SDS011;23195;47.744;7.358;2023-03-14T08:57:40;0.97;;;0.40;;
37309;SDS011;23195;47.744;7.358;2023-03-14T09:00:06;0.47;;;0.33;;
37309;SDS011;23195;47.744;7.358;2023-03-14T09:02:39;0.23;;;0.20;;
37309;SDS011;23195;47.744;7.358;2023-03-14T09:05:05;2.87;;;0.50;;
37309;SDS011;23195;47.744;7.358;2023-03-14T09:07:32;0.57;;;0.50;;
37309;SDS011;23195;47.744;7.358;2023-03-14T09:09:57;1.23;;;0.50;;
37309;SDS011;23195;47.744;7.358;2023-03-14T09:12:23;0.90;;;0.23;;
37309;SDS011;23195;47.744;7.358;2023-03-14T09:14:49;0.60;;;0.33;;
37309;SDS011;23195;47.744;7.358;2023-03-14T09:17:18;1.07;;;0.20;;
37309;SDS011;23195;47.744;7.358;2023-03-14T09:19:44;0.60;;;0.40;;
37309;SDS011;23195;47.744;7.358;2023-03-14T09:22:09;0.20;;;0.20;;
37309;SDS011;23195;47.744;7.358;2023-03-14T09:24:35;0.53;;;0.20;;
37309;SDS011;23195;47.744;7.358;2023-03-14T09:27:01;0.87;;;0.20;;
37309;SDS011;23195;47.744;7.358;2023-03-14T09:29:27;0.40;;;0.20;;
37309;SDS011;23195;47.744;7.358;2023-03-14T09:31:52;1.37;;;0.40;;
37309;SDS011;23195;47.744;7.358;2023-03-14T09:34:18;0.50;;;0.40;;
37309;SDS011;23195;47.744;7.358;2023-03-14T09:36:44;0.40;;;0.20;;
37309;SDS011;23195;47.744;7.358;2023-03-14T09:39:13;0.97;;;0.20;;
37309;SDS011;23195;47.744;7.358;2023-03-14T09:41:40;0.30;;;0.20;;
37309;SDS011;23195;47.744;7.358;2023-03-14T09:44:15;0.37;;;0.10;;
37309;SDS011;23195;47.744;7.358;2023-03-14T09:46:45;1.03;;;0.20;;
37309;SDS011;23195;47.744;7.358;2023-03-14T09:49:28;0.50;;;0.30;;
37309;SDS011;23195;47.744;7.358;2023-03-14T09:52:06;0.73;;;0.10;;
37309;SDS011;23195;47.744;7.358;2023-03-14T09:54:56;0.20;;;0.10;;
37309;SDS011;23195;47.744;7.358;2023-03-14T09:57:27;1.17;;;0.20;;
37309;SDS011;23195;47.744;7.358;2023-03-14T10:00:00;0.10;;;0.10;;
37309;SDS011;23195;47.744;7.358;2023-03-14T10:02:39;0.50;;;0.20;;
37309;SDS011;23195;47.744;7.358;2023-03-14T10:05:17;0.63;;;0.30;;
37309;SDS011;23195;47.744;7.358;2023-03-14T10:07:44;5.33;;;0.20;;
37309;SDS011;23195;47.744;7.358;2023-03-14T10:12:44;2.57;;;0.30;;
37309;SDS011;23195;47.744;7.358;2023-03-14T10:15:12;0.20;;;0.10;;
37309;SDS011;23195;47.744;7.358;2023-03-14T10:17:49;0.77;;;0.10;;
37309;SDS011;23195;47.744;7.358;2023-03-14T10:20:31;1.43;;;0.30;;
37309;SDS011;23195;47.744;7.358;2023-03-14T10:23:00;2.07;;;0.30;;
37309;SDS011;23195;47.744;7.358;2023-03-14T10:25:29;3.43;;;0.80;;
37309;SDS011;23195;47.744;7.358;2023-03-14T10:27:59;0.97;;;0.40;;
37309;SDS011;23195;47.744;7.358;2023-03-14T10:33:12;0.30;;;0.20;;
37309;SDS011;23195;47.744;7.358;2023-03-14T10:35:55;0.10;;;0.10;;
37309;SDS011;23195;47.744;7.358;2023-03-14T10:38:40;0.83;;;0.50;;
37309;SDS011;23195;47.744;7.358;2023-03-14T10:41:25;0.70;;;0.70;;
37309;SDS011;23195;47.744;7.358;2023-03-14T10:43:58;0.97;;;0.67;;
37309;SDS011;23195;47.744;7.358;2023-03-14T10:46:26;1.03;;;0.63;;
37309;SDS011;23195;47.744;7.358;2023-03-14T10:48:56;0.30;;;0.30;;
37309;SDS011;23195;47.744;7.358;2023-03-14T10:51:26;1.73;;;0.30;;
37309;SDS011;23195;47.744;7.358;2023-03-14T10:53:57;1.77;;;0.30;;
37309;SDS011;23195;47.744;7.358;2023-03-14T10:56:38;1.33;;;0.30;;
37309;SDS011;23195;47.744;7.358;2023-03-14T10:59:06;1.67;;;0.60;;
37309;SDS011;23195;47.744;7.358;2023-03-14T11:07:45;4.27;;;1.00;;
37309;SDS011;23195;47.744;7.358;2023-03-14T11:13:01;2.20;;;1.07;;
37309;SDS011;23195;47.744;7.358;2023-03-14T11:15:47;1.40;;;0.60;;
37309;SDS011;23195;47.744;7.358;2023-03-14T11:35:53;1.50;;;0.77;;
37309;SDS011;23195;47.744;7.358;2023-03-14T11:40:51;2.20;;;0.70;;
37309;SDS011;23195;47.744;7.358;2023-03-14T11:43:24;3.77;;;0.80;;
37309;SDS011;23195;47.744;7.358;2023-03-14T11:46:03;1.93;;;0.70;;
37309;SDS011;23195;47.744;7.358;2023-03-14T11:48:35;1.60;;;0.70;;
37309;SDS011;23195;47.744;7.358;2023-03-14T11:51:20;1.90;;;0.80;;
37309;SDS011;23195;47.744;7.358;2023-03-14T11:56:29;2.30;;;0.60;;
37309;SDS011;23195;47.744;7.358;2023-03-14T11:59:05;3.00;;;0.63;;
37309;SDS011;23195;47.744;7.358;2023-03-14T12:01:44;1.27;;;0.40;;
37309;SDS011;23195;47.744;7.358;2023-03-14T12:04:22;1.53;;;0.60;;
37309;SDS011;23195;47.744;7.358;2023-03-14T12:06:57;2.40;;;0.43;;
37309;SDS011;23195;47.744;7.358;2023-03-14T12:09:37;1.20;;;0.60;;
37309;SDS011;23195;47.744;7.358;2023-03-14T12:12:06;1.80;;;0.60;;
37309;SDS011;23195;47.744;7.358;2023-03-14T12:15:00;3.07;;;0.60;;
37309;SDS011;23195;47.744;7.358;2023-03-14T12:17:39;1.47;;;0.70;;
37309;SDS011;23195;47.744;7.358;2023-03-14T12:22:46;3.00;;;0.67;;
37309;SDS011;23195;47.744;7.358;2023-03-14T12:25:15;3.40;;;0.70;;
37309;SDS011;23195;47.744;7.358;2023-03-14T12:30:33;1.90;;;0.50;;
37309;SDS011;23195;47.744;7.358;2023-03-14T12:33:20;4.40;;;1.30;;
37309;SDS011;23195;47.744;7.358;2023-03-14T12:36:01;2.83;;;0.70;;
37309;SDS011;23195;47.744;7.358;2023-03-14T12:43:50;3.70;;;0.97;;
37309;SDS011;23195;47.744;7.358;2023-03-14T12:46:23;1.77;;;1.00;;
37309;SDS011;23195;47.744;7.358;2023-03-14T12:48:55;2.80;;;0.80;;
37309;SDS011;23195;47.744;7.358;2023-03-14T12:51:39;1.63;;;0.83;;
37309;SDS011;23195;47.744;7.358;2023-03-14T12:54:15;2.10;;;0.90;;
37309;SDS011;23195;47.744;7.358;2023-03-14T13:02:17;3.23;;;0.73;;
37309;SDS011;23195;47.744;7.358;2023-03-14T13:15:45;5.73;;;1.43;;
37309;SDS011;23195;47.744;7.358;2023-03-14T13:18:13;3.90;;;1.33;;
37309;SDS011;23195;47.744;7.358;2023-03-14T13:20:53;4.87;;;1.17;;
37309;SDS011;23195;47.744;7.358;2023-03-14T13:23:27;2.10;;;1.00;;
37309;SDS011;23195;47.744;7.358;2023-03-14T13:25:54;3.10;;;1.00;;
37309;SDS011;23195;47.744;7.358;2023-03-14T13:28:21;3.63;;;1.00;;
37309;SDS011;23195;47.744;7.358;2023-03-14T13:30:48;3.37;;;1.13;;
37309;SDS011;23195;47.744;7.358;2023-03-14T13:33:20;2.33;;;0.90;;
37309;SDS011;23195;47.744;7.358;2023-03-14T13:35:54;2.43;;;1.10;;
37309;SDS011;23195;47.744;7.358;2023-03-14T13:38:23;3.03;;;0.97;;
37309;SDS011;23195;47.744;7.358;2023-03-14T13:40:54;1.67;;;0.90;;
37309;SDS011;23195;47.744;7.358;2023-03-14T13:46:01;2.40;;;0.87;;
37309;SDS011;23195;47.744;7.358;2023-03-14T13:49:03;5.33;;;1.00;;
37309;SDS011;23195;47.744;7.358;2023-03-14T13:51:40;4.00;;;0.80;;
37309;SDS011;23195;47.744;7.358;2023-03-14T13:54:14;3.63;;;0.80;;
37309;SDS011;23195;47.744;7.358;2023-03-14T13:56:44;2.80;;;0.80;;
37309;SDS011;23195;47.744;7.358;2023-03-14T14:04:58;3.53;;;0.93;;
37309;SDS011;23195;47.744;7.358;2023-03-14T14:07:25;3.33;;;0.90;;
37309;SDS011;23195;47.744;7.358;2023-03-14T14:09:54;2.70;;;0.87;;
37309;SDS011;23195;47.744;7.358;2023-03-14T14:17:36;5.60;;;1.00;;
37309;SDS011;23195;47.744;7.358;2023-03-14T14:20:07;5.17;;;1.00;;
37309;SDS011;23195;47.744;7.358;2023-03-14T14:22:41;3.10;;;1.10;;
37309;SDS011;23195;47.744;7.358;2023-03-14T14:25:12;1.63;;;0.77;;
37309;SDS011;23195;47.744;7.358;2023-03-14T14:27:42;3.73;;;0.60;;
37309;SDS011;23195;47.744;7.358;2023-03-14T14:32:47;2.80;;;0.70;;
37309;SDS011;23195;47.744;7.358;2023-03-14T14:35:24;1.80;;;0.73;;
37309;SDS011;23195;47.744;7.358;2023-03-14T14:37:57;3.00;;;0.90;;
37309;SDS011;23195;47.744;7.358;2023-03-14T14:40:23;3.90;;;0.77;;
37309;SDS011;23195;47.744;7.358;2023-03-14T14:42:52;2.57;;;0.70;;
37309;SDS011;23195;47.744;7.358;2023-03-14T14:45:27;3.30;;;1.63;;
37309;SDS011;23195;47.744;7.358;2023-03-14T14:47:54;6.30;;;2.67;;
37309;SDS011;23195;47.744;7.358;2023-03-14T14:50:32;3.00;;;1.53;;
37309;SDS011;23195;47.744;7.358;2023-03-14T14:53:03;3.13;;;1.40;;
37309;SDS011;23195;47.744;7.358;2023-03-14T14:55:52;2.90;;;1.20;;
37309;SDS011;23195;47.744;7.358;2023-03-14T14:58:24;4.40;;;0.70;;
37309;SDS011;23195;47.744;7.358;2023-03-14T15:01:05;2.77;;;1.00;;
37309;SDS011;23195;47.744;7.358;2023-03-14T15:03:42;2.70;;;1.10;;
37309;SDS011;23195;47.744;7.358;2023-03-14T15:06:08;2.27;;;0.83;;
37309;SDS011;23195;47.744;7.358;2023-03-14T15:08:43;2.50;;;0.90;;
37309;SDS011;23195;47.744;7.358;2023-03-14T15:11:15;3.53;;;0.80;;
37309;SDS011;23195;47.744;7.358;2023-03-14T15:13:49;3.37;;;0.80;;
37309;SDS011;23195;47.744;7.358;2023-03-14T15:16:17;4.37;;;0.90;;
37309;SDS011;23195;47.744;7.358;2023-03-14T15:18:52;3.90;;;0.93;;
37309;SDS011;23195;47.744;7.358;2023-03-14T15:21:23;2.73;;;0.80;;
37309;SDS011;23195;47.744;7.358;2023-03-14T15:23:50;2.73;;;0.90;;
37309;SDS011;23195;47.744;7.358;2023-03-14T15:26:17;2.10;;;0.60;;
37309;SDS011;23195;47.744;7.358;2023-03-14T15:29:00;3.70;;;0.67;;
37309;SDS011;23195;47.744;7.358;2023-03-14T15:31:28;2.73;;;0.93;;
37309;SDS011;23195;47.744;7.358;2023-03-14T15:33:54;5.20;;;0.70;;
37309;SDS011;23195;47.744;7.358;2023-03-14T15:36:21;1.33;;;0.63;;
37309;SDS011;23195;47.744;7.358;2023-03-14T15:38:52;4.00;;;0.70;;
37309;SDS011;23195;47.744;7.358;2023-03-14T15:41:19;2.57;;;0.77;;
37309;SDS011;23195;47.744;7.358;2023-03-14T15:43:46;1.40;;;0.60;;
37309;SDS011;23195;47.744;7.358;2023-03-14T15:46:14;1.17;;;0.70;;
37309;SDS011;23195;47.744;7.358;2023-03-14T15:48:42;2.43;;;0.90;;
37309;SDS011;23195;47.744;7.358;2023-03-14T15:51:15;2.67;;;0.90;;
37309;SDS011;23195;47.744;7.358;2023-03-14T15:53:42;1.90;;;0.77;;
37309;SDS011;23195;47.744;7.358;2023-03-14T15:56:21;1.83;;;0.40;;
37309;SDS011;23195;47.744;7.358;2023-03-14T15:59:10;2.30;;;0.50;;
37309;SDS011;23195;47.744;7.358;2023-03-14T16:01:45;1.43;;;0.30;;
37309;SDS011;23195;47.744;7.358;2023-03-14T16:05:20;0.67;;;0.30;;
37309;SDS011;23195;47.744;7.358;2023-03-14T16:07:47;0.47;;;0.30;;
37309;SDS011;23195;47.744;7.358;2023-03-14T16:10:14;0.73;;;0.50;;
37309;SDS011;23195;47.744;7.358;2023-03-14T16:12:40;0.47;;;0.40;;
37309;SDS011;23195;47.744;7.358;2023-03-14T16:15:07;1.43;;;0.50;;
37309;SDS011;23195;47.744;7.358;2023-03-14T16:17:57;0.83;;;0.40;;
37309;SDS011;23195;47.744;7.358;2023-03-14T16:20:23;0.70;;;0.40;;
37309;SDS011;23195;47.744;7.358;2023-03-14T16:22:48;4.33;;;1.60;;
37309;SDS011;23195;47.744;7.358;2023-03-14T16:25:14;3.67;;;1.20;;
37309;SDS011;23195;47.744;7.358;2023-03-14T16:27:43;1.27;;;0.60;;
37309;SDS011;23195;47.744;7.358;2023-03-14T16:30:10;2.67;;;0.77;;
37309;SDS011;23195;47.744;7.358;2023-03-14T16:32:38;5.10;;;2.00;;
37309;SDS011;23195;47.744;7.358;2023-03-14T16:35:04;2.17;;;0.70;;
37309;SDS011;23195;47.744;7.358;2023-03-14T16:37:30;1.60;;;0.73;;